This is the latest recevied weather packets stored in our database for station/object KE5AKC. If no packets are shown the sender has not sent any weather packets the latest 10 day(s).
| Time | Temp. | Humidity | Pressure | Rain* | Wind** | Luminosity | Snow |
|---|---|---|---|---|---|---|---|
| 1777816127 | 20.56° C | 61% | 1022.2 hPa | 0 mm | - | 89 W/m² | - |
| 1777815825 | 21.11° C | 63% | 1022.5 hPa | 0 mm | - | 270 W/m² | - |
| 1777815522 | 20° C | 65% | 1022.2 hPa | 0 mm | - | 237 W/m² | - |
| 1777815220 | 20° C | 66% | 1022.5 hPa | 0 mm | - | 213 W/m² | - |
| 1777814916 | 19.44° C | 72% | 1022.2 hPa | 0 mm | - | 192 W/m² | - |
| 1777814612 | 18.33° C | 78% | 1022.2 hPa | 0 mm | - | 169 W/m² | - |
| 1777814310 | 17.78° C | 93% | 1022.2 hPa | 0 mm | - | 151 W/m² | - |
| 1777814006 | 16.67° C | 95% | 1022.2 hPa | 0 mm | - | 133 W/m² | - |
| 1777813704 | 16.67° C | 96% | 1022.2 hPa | 0 mm | - | 118 W/m² | - |
| 1777813401 | 16.11° C | 97% | 1022.2 hPa | 0 mm | - | 102 W/m² | - |
| 1777813098 | 15.56° C | 97% | 1022.2 hPa | 0 mm | - | 89 W/m² | - |
| 1777812796 | 15.56° C | 98% | 1022.2 hPa | 0 mm | - | 81 W/m² | - |
| 1777812491 | 15° C | 98% | 1022.2 hPa | 0 mm | - | 73 W/m² | - |
| 1777812190 | 14.44° C | 98% | 1022.2 hPa | 0 mm | - | 66 W/m² | - |
| 1777811888 | 13.89° C | 97% | 1022.2 hPa | 0 mm | - | 59 W/m² | - |
| 1777811587 | 13.89° C | 97% | 1022.2 hPa | 0 mm | - | 53 W/m² | - |
| 1777811282 | 13.89° C | 98% | 1022.2 hPa | 0 mm | - | 47 W/m² | - |
| 1777810979 | 13.33° C | 97% | 1022.2 hPa | 0 mm | - | 42 W/m² | - |
| 1777810676 | 13.33° C | 98% | 1022.2 hPa | 0 mm | - | 37 W/m² | - |
| 1777810373 | 12.78° C | 98% | 1021.8 hPa | 0 mm | - | 32 W/m² | - |
| 1777810069 | 12.22° C | 97% | 1021.8 hPa | 0 mm | - | 27 W/m² | - |
| 1777809767 | 12.22° C | 97% | 1021.8 hPa | 0 mm | - | 22 W/m² | - |
| 1777809464 | 12.22° C | 97% | 1021.8 hPa | 0 mm | - | 16 W/m² | - |
| 1777809162 | 12.22° C | 97% | 1021.8 hPa | 0 mm | - | 13 W/m² | - |
| 1777808859 | 12.22° C | 97% | 1021.5 hPa | 0 mm | - | 9 W/m² | - |
* Rain latest hour (hover to see other rain measurements)
** Current wind speed in m/s (hover to see current wind gust speed)